Time;durP1;ratioP1;P1;durP2;ratioP2;P2;SDS_P1;SDS_P2;PMS_P1;PMS_P2;Temp;Humidity;BMP_temperature;BMP_pressure;BME280_temperature;BME280_humidity;BME280_pressure;Samples;Min_cycle;Max_cycle;Signal;HPM_P1;HPM_P2
2020/12/03 00:01:09;;;;;;;46.20;22.48;;;;;;;-2.04;100.00;102302.58;1744096;80;21240;-87
2020/12/03 00:03:51;;;;;;;54.30;27.32;;;;;;;-2.03;100.00;102306.41;1743304;82;21160;-87
2020/12/03 00:06:26;;;;;;;51.15;25.88;;;;;;;-2.03;100.00;102305.56;1743564;80;21155;-87
2020/12/03 00:09:10;;;;;;;51.42;26.25;;;;;;;-2.06;100.00;102306.41;1742724;81;21568;-87
2020/12/03 00:11:44;;;;;;;56.63;27.05;;;;;;;-2.05;100.00;102308.12;1744012;80;21426;-87
2020/12/03 00:14:12;;;;;;;50.12;25.35;;;;;;;-2.04;100.00;102311.08;1742406;81;21136;-87
2020/12/03 00:16:41;;;;;;;65.80;28.12;;;;;;;-2.03;100.00;102303.02;1744062;80;21101;-87
2020/12/03 00:19:12;;;;;;;58.90;25.72;;;;;;;-2.03;100.00;102302.57;1744016;81;21148;-87
2020/12/03 00:21:47;;;;;;;62.70;28.17;;;;;;;-2.07;100.00;102307.25;1774898;80;21125;-86
2020/12/03 00:24:21;;;;;;;58.33;27.30;;;;;;;-2.10;100.00;102299.56;1743974;81;21368;-87
2020/12/03 00:26:49;;;;;;;45.95;23.80;;;;;;;-2.12;100.00;102307.22;1774644;80;21573;-87
2020/12/03 00:29:18;;;;;;;53.13;25.32;;;;;;;-2.12;100.00;102297.42;1744045;81;21128;-87
2020/12/03 00:31:48;;;;;;;58.52;24.72;;;;;;;-2.12;100.00;102301.25;1774735;80;21207;-87
2020/12/03 00:34:17;;;;;;;52.10;24.40;;;;;;;-2.11;100.00;102297.85;1744987;82;21631;-87
2020/12/03 00:36:45;;;;;;;54.05;25.02;;;;;;;-2.08;100.00;102302.98;1837059;78;21278;-87
2020/12/03 00:39:16;;;;;;;56.90;26.42;;;;;;;-2.04;100.00;102302.58;1829168;78;21151;-87
2020/12/03 00:41:52;;;;;;;57.50;26.35;;;;;;;-2.05;100.00;102297.91;1818257;77;21163;-87
2020/12/03 00:44:21;;;;;;;58.15;26.33;;;;;;;-2.07;100.00;102303.42;1773407;80;21171;-87
2020/12/03 00:46:50;;;;;;;53.83;23.90;;;;;;;-2.07;100.00;102300.87;1773420;80;21528;-87
2020/12/03 00:49:19;;;;;;;63.13;27.35;;;;;;;-2.06;100.00;102293.20;1765066;80;22231;-87
2020/12/03 00:51:50;;;;;;;58.55;25.40;;;;;;;-2.05;100.00;102299.18;1837071;78;21115;-87
2020/12/03 00:54:20;;;;;;;44.10;19.80;;;;;;;-2.07;100.00;102296.60;1750438;80;21128;-88
2020/12/03 00:56:51;;;;;;;48.30;23.35;;;;;;;-2.04;100.00;102303.41;1747984;82;21123;-87
2020/12/03 00:59:19;;;;;;;57.48;25.50;;;;;;;-2.03;100.00;102303.84;1829145;78;21056;-87
2020/12/03 01:01:47;;;;;;;56.15;23.73;;;;;;;-2.04;100.00;102290.65;1814516;77;21188;-87
2020/12/03 01:04:15;;;;;;;54.48;24.23;;;;;;;-2.04;100.00;102300.86;1814523;78;21147;-87
2020/12/03 01:06:44;;;;;;;59.33;23.80;;;;;;;-2.04;100.00;102300.02;1814534;78;21203;-87
2020/12/03 01:09:13;;;;;;;54.48;24.87;;;;;;;-2.02;100.00;102303.44;1814557;78;21106;-87
2020/12/03 01:11:41;;;;;;;57.80;24.00;;;;;;;-2.05;100.00;102296.62;1814723;79;21118;-87
2020/12/03 01:14:10;;;;;;;52.35;23.85;;;;;;;-2.07;100.00;102294.48;1814726;77;21438;-87
2020/12/03 01:16:38;;;;;;;60.92;25.00;;;;;;;-2.06;100.00;102288.54;1814742;77;21117;-87
2020/12/03 01:19:06;;;;;;;52.60;23.50;;;;;;;-2.06;100.00;102282.16;1814690;77;21111;-87
2020/12/03 01:21:34;;;;;;;52.50;24.75;;;;;;;-2.06;100.00;102280.87;1814460;79;21467;-87
2020/12/03 01:24:02;;;;;;;56.20;24.87;;;;;;;-2.07;100.00;102281.72;1814433;78;21060;-87
2020/12/03 01:26:30;;;;;;;53.42;24.55;;;;;;;-2.07;100.00;102288.10;1814527;79;21190;-87
2020/12/03 01:28:58;;;;;;;46.02;22.45;;;;;;;-2.06;100.00;102285.98;1814439;78;22045;-87
2020/12/03 01:31:31;;;;;;;55.88;24.85;;;;;;;-2.05;100.00;102287.70;1814925;79;21162;-87
2020/12/03 01:33:58;;;;;;;56.60;24.63;;;;;;;-2.03;100.00;102281.31;1811155;78;21173;-87
2020/12/03 01:36:26;;;;;;;54.48;22.90;;;;;;;-2.03;100.00;102275.77;1803866;79;21523;-87
2020/12/03 01:38:54;;;;;;;54.27;24.27;;;;;;;-2.03;100.00;102275.77;1802801;78;21604;-87
2020/12/03 01:41:24;;;;;;;52.33;25.43;;;;;;;-2.05;100.00;102274.92;1802740;79;21138;-87
2020/12/03 01:43:52;;;;;;;50.98;24.20;;;;;;;-2.09;100.00;102273.20;1802903;79;21095;-87
2020/12/03 01:46:20;;;;;;;50.05;23.22;;;;;;;-2.12;100.00;102270.21;1802751;78;21447;-87
2020/12/03 01:48:52;;;;;;;47.53;23.02;;;;;;;-2.14;100.00;102277.44;1802794;78;21111;-87
2020/12/03 01:51:32;;;;;;;47.03;23.52;;;;;;;-2.17;100.00;102278.69;1802757;78;21363;-87
2020/12/03 01:54:11;;;;;;;45.03;21.93;;;;;;;-2.15;100.00;102285.94;1802795;78;21119;-87
2020/12/03 01:57:00;;;;;;;49.05;21.37;;;;;;;-2.14;100.00;102278.27;1802843;78;21590;-87
2020/12/03 01:59:45;;;;;;;53.20;23.32;;;;;;;-2.11;100.00;102273.20;1811139;78;21152;-88
2020/12/03 02:02:16;;;;;;;52.62;23.52;;;;;;;-2.08;100.00;102281.28;1831290;77;21176;-87
2020/12/03 02:04:55;;;;;;;54.45;23.87;;;;;;;-2.08;100.00;102270.64;1751664;81;21548;-87
2020/12/03 02:07:24;;;;;;;46.83;22.42;;;;;;;-2.09;100.00;102268.95;1826829;78;21176;-87
2020/12/03 02:09:54;;;;;;;49.67;22.07;;;;;;;-2.10;100.00;102268.53;1830309;78;21171;-87
2020/12/03 02:12:22;;;;;;;44.70;21.55;;;;;;;-2.09;100.00;102268.09;1797084;78;21200;-87
2020/12/03 02:14:52;;;;;;;54.35;23.55;;;;;;;-2.09;100.00;102269.36;1790032;80;21197;-87
2020/12/03 02:17:20;;;;;;;45.92;20.52;;;;;;;-2.08;100.00;102277.02;1722705;82;21608;-87
2020/12/03 02:20:00;;;;;;;46.30;21.68;;;;;;;-2.04;100.00;102282.16;1808220;78;21967;-87
2020/12/03 02:22:28;;;;;;;42.43;20.20;;;;;;;-2.01;100.00;102284.73;1751443;81;21183;-87
2020/12/03 02:24:56;;;;;;;50.63;22.17;;;;;;;-1.99;100.00;102285.16;1832663;78;21144;-87
2020/12/03 02:27:25;;;;;;;43.42;21.50;;;;;;;-1.96;100.00;102279.20;1751516;81;22107;-87
2020/12/03 02:29:53;;;;;;;47.95;22.70;;;;;;;-1.95;100.00;102277.92;1832656;78;21365;-87
2020/12/03 02:32:22;;;;;;;42.25;19.23;;;;;;;-1.94;100.00;102278.36;1832607;78;21135;-87
2020/12/03 02:34:50;;;;;;;45.12;21.62;;;;;;;-1.93;100.00;102278.80;1751550;81;21426;-87
2020/12/03 02:37:18;;;;;;;51.58;22.93;;;;;;;-1.92;100.00;102283.46;1782550;80;21575;-87
2020/12/03 02:39:46;;;;;;;52.30;23.60;;;;;;;-1.89;100.00;102284.77;1752685;81;21095;-87
2020/12/03 02:42:15;;;;;;;34.78;19.57;;;;;;;-1.89;100.00;102278.81;1782394;80;21504;-87
2020/12/03 02:44:47;;;;;;;48.85;24.27;;;;;;;-1.90;100.00;102285.61;1752524;80;21184;-87
2020/12/03 02:47:20;;;;;;;47.40;22.42;;;;;;;-1.89;100.00;102284.77;1782847;80;21227;-87
2020/12/03 02:49:49;;;;;;;47.65;23.12;;;;;;;-1.91;100.00;102273.27;1743135;81;21190;-88
2020/12/03 02:52:23;;;;;;;46.02;22.75;;;;;;;-1.91;100.00;102278.38;1803428;79;21528;-87
2020/12/03 02:54:55;;;;;;;44.40;23.83;;;;;;;-1.92;100.00;102277.95;1803434;79;21107;-87
2020/12/03 02:57:23;;;;;;;52.83;24.18;;;;;;;-1.92;100.00;102277.95;1803511;79;21196;-87
2020/12/03 02:59:52;;;;;;;48.25;23.22;;;;;;;-1.92;100.00;102276.67;1816323;78;21061;-88
2020/12/03 03:02:20;;;;;;;50.78;23.75;;;;;;;-1.92;100.00;102275.39;1836695;78;21060;-88
2020/12/03 03:04:55;;;;;;;49.60;24.65;;;;;;;-1.92;100.00;102275.39;1836926;78;21187;-87
2020/12/03 03:07:23;;;;;;;45.65;23.38;;;;;;;-1.91;100.00;102278.79;1836757;78;21315;-87
2020/12/03 03:09:52;;;;;;;57.38;25.68;;;;;;;-1.93;100.00;102274.97;1836565;78;21127;-87
2020/12/03 03:12:20;;;;;;;51.40;24.47;;;;;;;-1.94;100.00;102275.80;1836523;78;21108;-87
2020/12/03 03:14:48;;;;;;;48.42;23.77;;;;;;;-1.93;100.00;102273.69;1836465;78;21679;-87
2020/12/03 03:17:16;;;;;;;46.95;22.87;;;;;;;-1.92;100.00;102271.56;1836641;78;21100;-87
2020/12/03 03:19:51;;;;;;;40.23;20.75;;;;;;;-1.90;100.00;102274.11;1836699;78;21334;-87
2020/12/03 03:22:19;;;;;;;53.05;25.00;;;;;;;-1.86;100.00;102275.84;1836747;77;21116;-87
2020/12/03 03:24:47;;;;;;;49.42;24.18;;;;;;;-1.82;100.00;102272.44;1836662;78;21152;-87
2020/12/03 03:27:16;;;;;;;48.95;23.38;;;;;;;-1.80;100.00;102275.86;1836823;77;21150;-87
2020/12/03 03:29:46;;;;;;;47.88;23.32;;;;;;;-1.79;100.00;102277.98;1836568;78;21136;-87
2020/12/03 03:32:14;;;;;;;50.40;23.18;;;;;;;-1.79;100.00;102276.70;1836670;78;21186;-87
2020/12/03 03:34:44;;;;;;;50.33;25.05;;;;;;;-1.77;100.00;102277.56;1836593;77;21100;-87
2020/12/03 03:37:12;;;;;;;45.65;23.42;;;;;;;-1.73;100.00;102274.59;1838851;77;21139;-87
2020/12/03 03:39:40;;;;;;;48.73;24.57;;;;;;;-1.73;100.00;102272.91;1838934;78;21127;-87
2020/12/03 03:42:09;;;;;;;53.68;25.92;;;;;;;-1.72;100.00;102275.87;1757548;81;21143;-87
2020/12/03 03:44:37;;;;;;;49.90;24.27;;;;;;;-1.74;100.00;102272.48;1767409;80;21198;-87
2020/12/03 03:47:05;;;;;;;53.40;24.72;;;;;;;-1.75;100.00;102271.61;1801114;79;21164;-88
2020/12/03 03:49:33;;;;;;;46.98;23.65;;;;;;;-1.74;100.00;102271.20;1802209;78;21523;-87
2020/12/03 03:52:01;;;;;;;45.17;23.18;;;;;;;-1.75;100.00;102267.78;1806077;78;21122;-88
2020/12/03 03:54:29;;;;;;;45.48;22.58;;;;;;;-1.74;100.00;102267.37;1805980;79;21221;-87
2020/12/03 03:56:57;;;;;;;55.75;24.07;;;;;;;-1.72;100.00;102273.31;1806065;78;21185;-87
2020/12/03 03:59:25;;;;;;;48.05;22.77;;;;;;;-1.73;100.00;102270.36;1806175;78;21126;-87
2020/12/03 04:01:55;;;;;;;43.73;23.55;;;;;;;-1.69;100.00;102272.49;1806097;79;21119;-88
2020/12/03 04:04:23;;;;;;;47.13;22.93;;;;;;;-1.67;100.00;102269.09;1803026;79;21168;-88
2020/12/03 04:06:53;;;;;;;50.30;24.85;;;;;;;-1.64;100.00;102274.19;1732836;82;21596;-85
2020/12/03 04:09:24;;;;;;;43.55;21.73;;;;;;;-1.65;100.00;102263.56;1801895;78;21368;-85
2020/12/03 04:11:53;;;;;;;51.33;24.90;;;;;;;-1.62;100.00;102263.55;1806195;79;21055;-85
2020/12/03 04:14:22;;;;;;;52.48;24.00;;;;;;;-1.61;100.00;102263.98;1806236;79;21051;-85
2020/12/03 04:16:52;;;;;;;49.13;24.25;;;;;;;-1.62;100.00;102258.45;1806195;79;21574;-85
2020/12/03 04:19:20;;;;;;;51.37;25.80;;;;;;;-1.62;100.00;102263.55;1807449;78;21054;-85
2020/12/03 04:21:49;;;;;;;50.78;25.72;;;;;;;-1.61;100.00;102265.70;1757616;80;21374;-85
2020/12/03 04:24:24;;;;;;;55.38;26.05;;;;;;;-1.63;100.00;102269.95;1788507;80;21183;-85
2020/12/03 04:26:54;;;;;;;55.65;25.60;;;;;;;-1.65;100.00;102269.95;1757588;80;21151;-83
2020/12/03 04:29:24;;;;;;;52.58;25.97;;;;;;;-1.65;100.00;102272.91;1786171;80;21080;-82
2020/12/03 04:31:53;;;;;;;58.45;28.15;;;;;;;-1.66;100.00;102272.08;1721934;82;21140;-82
2020/12/03 04:34:22;;;;;;;51.15;24.30;;;;;;;-1.65;100.00;102280.58;1721760;83;21190;-81
2020/12/03 04:36:51;;;;;;;51.00;24.87;;;;;;;-1.66;100.00;102282.30;1712916;82;21124;-83
2020/12/03 04:39:19;;;;;;;50.03;24.07;;;;;;;-1.64;100.00;102277.18;1708675;81;21147;-82
2020/12/03 04:41:48;;;;;;;57.67;26.33;;;;;;;-1.63;100.00;102275.89;1725878;83;21140;-82
2020/12/03 04:52:40;;;;;;;52.40;23.62;;;;;;;-1.56;100.00;102276.77;1771877;81;21061;-82
2020/12/03 04:55:50;;;;;;;48.15;23.77;;;;;;;-1.53;100.00;102275.92;1726020;83;21159;-82
2020/12/03 05:06:50;;;;;;;45.50;23.52;;;;;;;-1.60;100.00;102292.52;1723889;83;21187;-81
2020/12/03 05:13:46;;;;;;;44.20;24.02;;;;;;;-1.54;100.00;102285.30;1724069;83;21083;-81
2020/12/03 05:16:24;;;;;;;54.77;24.98;;;;;;;-1.54;100.00;102285.30;1723945;83;21135;-81
2020/12/03 05:20:10;;;;;;;42.27;21.23;;;;;;;-1.50;100.00;102281.89;1853853;77;22401;-80
2020/12/03 05:27:02;;;;;;;48.95;24.10;;;;;;;-1.52;100.00;102292.52;1855411;76;21219;-79
2020/12/03 05:32:54;;;;;;;40.40;21.15;;;;;;;-1.51;100.00;102294.67;1826574;77;21142;-87
2020/12/03 05:35:23;;;;;;;45.70;24.57;;;;;;;-1.46;100.00;102299.36;1815137;79;21167;-88
2020/12/03 05:37:51;;;;;;;43.78;24.02;;;;;;;-1.45;100.00;102305.77;1791747;79;21237;-88
2020/12/03 05:40:23;;;;;;;43.10;22.52;;;;;;;-1.47;100.00;102299.80;1792046;78;21439;-88
2020/12/03 05:42:54;;;;;;;47.50;25.35;;;;;;;-1.45;100.00;102307.05;1799545;79;21067;-89
2020/12/03 05:45:30;;;;;;;52.23;25.93;;;;;;;-1.42;100.00;102304.92;1795142;79;21209;-89
2020/12/03 05:48:03;;;;;;;47.62;25.20;;;;;;;-1.39;100.00;102297.67;1799511;79;21289;-88
2020/12/03 05:50:36;;;;;;;43.23;22.30;;;;;;;-1.37;100.00;102296.83;1800230;79;21160;-88
2020/12/03 05:53:10;;;;;;;45.95;22.07;;;;;;;-1.35;100.00;102296.82;1801306;79;21372;-88
2020/12/03 05:55:38;;;;;;;40.90;22.30;;;;;;;-1.30;100.00;102304.92;1802140;78;21166;-88
2020/12/03 05:58:28;;;;;;;31.42;18.02;;;;;;;-1.27;100.00;102306.62;1834032;78;21107;-88
2020/12/03 06:01:10;;;;;;;41.85;22.55;;;;;;;-1.24;100.00;102309.64;1822504;78;21155;-89
2020/12/03 06:03:59;;;;;;;43.92;22.85;;;;;;;-1.24;100.00;102310.92;1848020;77;21535;-89
2020/12/03 06:06:50;;;;;;;38.78;20.62;;;;;;;-1.27;100.00;102306.22;1826765;78;21653;-87
2020/12/03 06:10:00;;;;;;;41.90;22.15;;;;;;;-1.25;100.00;102305.38;1819660;78;21710;-89
2020/12/03 06:13:02;;;;;;;41.73;20.95;;;;;;;-1.24;100.00;102305.81;1776661;78;21694;-89
2020/12/03 06:15:53;;;;;;;51.18;22.75;;;;;;;-0.99;100.00;102306.23;1832113;78;21201;-89
2020/12/03 06:18:28;;;;;;;;;;;;;;;-0.51;100.00;102298.53;1805382;78;21079;-86
2020/12/03 06:21:21;;;;;;;51.88;23.47;;;;;;;-0.43;100.00;102293.83;1809866;78;21198;-87
2020/12/03 06:24:14;;;;;;;49.27;23.55;;;;;;;-0.28;100.00;102285.27;1788696;78;21567;-88
2020/12/03 06:27:13;;;;;;;51.00;23.00;;;;;;;-0.22;100.00;102288.64;1788748;80;21456;-89
2020/12/03 06:29:55;;;;;;;55.38;22.07;;;;;;;-0.17;100.00;102285.66;1809551;78;21642;-90
2020/12/03 06:32:35;;;;;;;54.27;23.62;;;;;;;-0.11;100.00;102292.44;1805662;78;21303;-89
2020/12/03 06:35:29;;;;;;;43.40;21.30;;;;;;;-0.10;100.00;102281.34;1804393;78;21364;-90
2020/12/03 06:38:37;;;;;;;44.75;20.27;;;;;;;-0.22;100.00;102291.64;1809955;78;21179;-90
2020/12/03 06:41:33;;;;;;;53.63;22.70;;;;;;;-0.33;100.00;102296.36;1822140;78;21091;-90
2020/12/03 06:44:36;;;;;;;53.48;22.67;;;;;;;-0.39;100.00;102298.94;1808026;78;21187;-90
2020/12/03 06:47:28;;;;;;;50.03;22.55;;;;;;;-0.48;100.00;102297.67;1789758;80;21581;-89
2020/12/03 06:50:02;;;;;;;45.30;22.02;;;;;;;-0.59;100.00;102299.38;1788288;78;21658;-90
2020/12/03 06:53:03;;;;;;;47.27;21.37;;;;;;;-0.59;100.00;102305.78;1792037;78;21630;-89
2020/12/03 06:56:02;;;;;;;54.43;21.83;;;;;;;-0.67;100.00;102305.37;1788587;78;21182;-89
2020/12/03 06:59:26;;;;;;;46.75;21.73;;;;;;;-0.72;100.00;102309.65;1821921;78;21135;-90
2020/12/03 07:02:18;;;;;;;50.00;22.20;;;;;;;-0.66;100.00;102314.75;1821935;78;21170;-88
2020/12/03 07:05:42;;;;;;;49.75;22.05;;;;;;;-0.59;100.00;102318.16;1807454;79;21113;-89
2020/12/03 07:08:45;;;;;;;45.48;22.05;;;;;;;-0.55;100.00;102317.30;1789843;79;21128;-88
2020/12/03 07:11:27;;;;;;;48.05;20.85;;;;;;;-0.48;100.00;102308.75;1818949;78;21119;-88
2020/12/03 07:14:15;;;;;;;52.65;23.55;;;;;;;-0.66;100.00;102310.91;1779132;78;21170;-88
2020/12/03 07:17:16;;;;;;;46.33;23.05;;;;;;;-0.73;100.00;102314.33;1811600;78;21470;-89
2020/12/03 07:20:24;;;;;;;46.37;23.37;;;;;;;-0.83;100.00;102316.05;1735017;81;21356;-88
2020/12/03 07:23:02;;;;;;;47.75;21.97;;;;;;;-0.88;100.00;102310.06;1787208;79;21533;-89
2020/12/03 07:25:30;;;;;;;46.10;21.55;;;;;;;-0.78;100.00;102314.77;1788212;79;21099;-90
2020/12/03 07:28:18;;;;;;;42.58;22.05;;;;;;;-0.76;100.00;102310.48;1818746;78;21171;-90
2020/12/03 07:30:57;;;;;;;49.77;23.05;;;;;;;-0.81;100.00;102319.47;1820140;78;21127;-88
2020/12/03 07:33:31;;;;;;;43.42;22.17;;;;;;;-0.78;100.00;102319.02;1820621;78;21249;-90
2020/12/03 07:36:16;;;;;;;45.92;23.42;;;;;;;-0.77;100.00;102320.73;1817966;78;21119;-88
2020/12/03 07:39:14;;;;;;;43.35;21.25;;;;;;;-0.80;100.00;102324.14;1818996;77;21076;-89
2020/12/03 07:41:53;;;;;;;39.60;20.50;;;;;;;-0.89;100.00;102321.58;1820573;77;21527;-90
2020/12/03 07:44:33;;;;;;;38.45;20.27;;;;;;;-0.89;100.00;102324.14;1818163;78;21111;-89
2020/12/03 07:47:23;;;;;;;46.53;20.62;;;;;;;-0.91;100.00;102325.43;1819486;78;21441;-89
2020/12/03 07:49:55;;;;;;;43.00;21.15;;;;;;;-0.91;100.00;102330.55;1818308;78;21555;-89
2020/12/03 07:52:35;;;;;;;46.60;22.17;;;;;;;-0.99;100.00;102331.80;1820594;77;21075;-89
2020/12/03 07:55:27;;;;;;;40.70;20.00;;;;;;;-1.02;100.00;102333.09;1820750;78;21119;-90
2020/12/03 07:57:59;;;;;;;;;;;;;;;-1.00;100.00;102330.09;1822800;78;21051;-89
2020/12/03 08:00:44;;;;;;;40.28;19.77;;;;;;;-0.98;100.00;102327.12;1820560;77;21320;-89
2020/12/03 08:03:42;;;;;;;37.48;19.48;;;;;;;-0.99;100.00;102327.12;1820629;78;21539;-89
2020/12/03 08:06:32;;;;;;;41.30;20.25;;;;;;;-0.97;100.00;102327.98;1817943;78;21175;-89
2020/12/03 08:09:05;;;;;;;40.30;20.40;;;;;;;-0.95;100.00;102328.82;1820730;78;21222;-89
2020/12/03 08:12:04;;;;;;;36.42;19.07;;;;;;;-0.99;100.00;102316.90;1819777;78;21143;-90
2020/12/03 08:14:41;;;;;;;43.73;21.10;;;;;;;-1.03;100.00;102318.61;1820587;78;21349;-89
2020/12/03 08:17:26;;;;;;;35.23;19.15;;;;;;;-1.04;100.00;102320.73;1820587;77;21136;-89
2020/12/03 08:20:09;;;;;;;36.48;19.52;;;;;;;-1.01;100.00;102315.63;1822678;77;21153;-89
2020/12/03 08:22:45;;;;;;;39.60;19.67;;;;;;;-0.97;100.00;102314.77;1812291;79;21601;-89
2020/12/03 08:25:25;;;;;;;38.02;20.40;;;;;;;-0.91;100.00;102313.05;1776209;79;21073;-89
2020/12/03 08:28:04;;;;;;;40.15;20.80;;;;;;;-0.85;100.00;102316.47;1774491;80;21385;-89
2020/12/03 08:30:37;;;;;;;41.50;21.80;;;;;;;-0.80;100.00;102318.59;1776037;80;21072;-89
2020/12/03 08:33:17;;;;;;;35.08;20.48;;;;;;;-0.77;100.00;102310.09;1776093;80;21096;-89
2020/12/03 08:35:53;;;;;;;41.23;20.37;;;;;;;-0.69;100.00;102313.49;1792664;78;21115;-89
2020/12/03 08:38:33;;;;;;;34.98;18.77;;;;;;;-0.68;100.00;102311.33;1835198;77;21120;-89
2020/12/03 08:41:10;;;;;;;38.92;19.05;;;;;;;-0.70;100.00;102313.06;1812124;79;21173;-89
2020/12/03 08:46:25;;;;;;;38.65;20.08;;;;;;;-0.62;100.00;102318.16;1836378;78;22795;-88
2020/12/03 08:48:54;;;;;;;40.95;20.85;;;;;;;-0.61;100.00;102317.30;1808838;79;21152;-88
2020/12/03 08:51:22;;;;;;;38.80;20.12;;;;;;;-0.58;100.00;102319.00;1808780;79;21372;-88
2020/12/03 08:53:52;;;;;;;41.53;20.90;;;;;;;-0.55;100.00;102308.78;1808786;79;21405;-89
2020/12/03 08:56:39;;;;;;;38.53;19.98;;;;;;;-0.53;100.00;102320.71;1808615;79;21167;-88
2020/12/03 08:59:12;;;;;;;38.25;19.92;;;;;;;-0.52;100.00;102310.06;1808669;78;21171;-89
2020/12/03 09:01:43;;;;;;;40.50;20.12;;;;;;;-0.53;100.00;102300.23;1808723;79;21143;-89
2020/12/03 09:04:12;;;;;;;37.77;19.57;;;;;;;-0.53;100.00;102300.23;1808968;79;21356;-89
2020/12/03 09:06:50;;;;;;;38.55;18.60;;;;;;;-0.58;100.00;102293.00;1808693;79;21096;-89
2020/12/03 09:09:23;;;;;;;45.28;20.02;;;;;;;-0.60;100.00;102295.15;1808623;79;21215;-89
2020/12/03 09:11:52;;;;;;;40.23;20.08;;;;;;;-0.65;100.00;102302.39;1808719;79;21150;-89
2020/12/03 09:14:22;;;;;;;35.33;18.87;;;;;;;-0.69;100.00;102295.99;1808665;78;21052;-89
2020/12/03 09:16:58;;;;;;;39.75;19.60;;;;;;;-0.68;100.00;102295.14;1808621;79;21359;-89
2020/12/03 09:19:27;;;;;;;39.27;18.90;;;;;;;-0.66;100.00;102294.72;1798274;78;21235;-89
2020/12/03 09:21:58;;;;;;;39.18;19.82;;;;;;;-0.65;100.00;102301.11;1808621;79;21139;-89
2020/12/03 09:24:27;;;;;;;36.45;19.67;;;;;;;-0.59;100.00;102300.66;1808790;79;21140;-89
2020/12/03 09:27:06;;;;;;;40.48;20.23;;;;;;;-0.54;100.00;102297.25;1808772;79;21080;-89
2020/12/03 09:29:34;;;;;;;36.90;19.45;;;;;;;-0.51;100.00;102295.11;1808687;79;22100;-88
2020/12/03 09:32:08;;;;;;;39.35;21.25;;;;;;;-0.52;100.00;102300.66;1807132;79;21551;-88
2020/12/03 09:34:38;;;;;;;38.92;20.68;;;;;;;-0.52;100.00;102300.66;1804785;79;21139;-88
2020/12/03 09:37:07;;;;;;;37.63;21.07;;;;;;;-0.52;100.00;102298.11;1808604;78;21154;-88
2020/12/03 09:39:37;;;;;;;39.85;21.15;;;;;;;-0.50;100.00;102297.69;1808709;78;21163;-87
2020/12/03 09:42:12;;;;;;;43.45;21.85;;;;;;;-0.47;100.00;102296.82;1808735;78;21551;-89
2020/12/03 09:44:43;;;;;;;39.27;20.02;;;;;;;-0.52;100.00;102297.27;1803833;79;21172;-89
2020/12/03 09:47:15;;;;;;;40.45;20.30;;;;;;;-0.55;100.00;102293.42;1797758;78;21112;-89
2020/12/03 09:49:45;;;;;;;38.95;20.08;;;;;;;-0.52;100.00;102283.19;1797606;79;21123;-89
2020/12/03 09:52:14;;;;;;;35.00;19.02;;;;;;;-0.50;100.00;102287.45;1797531;79;21204;-89
2020/12/03 09:54:43;;;;;;;39.80;21.33;;;;;;;-0.50;100.00;102280.17;1797651;79;21371;-89
2020/12/03 09:57:12;;;;;;;41.48;20.88;;;;;;;-0.53;100.00;102281.48;1797087;79;21160;-89
2020/12/03 09:59:41;;;;;;;35.80;19.80;;;;;;;-0.55;100.00;102282.75;1797030;79;21536;-89
2020/12/03 10:02:31;;;;;;;38.33;19.48;;;;;;;-0.53;100.00;102276.37;1796668;78;21065;-89
2020/12/03 10:05:23;;;;;;;35.35;19.10;;;;;;;-0.51;100.00;102276.78;1765678;79;21445;-90
2020/12/03 10:08:24;;;;;;;39.35;18.30;;;;;;;-0.54;100.00;102283.17;1769381;79;21395;-88
2020/12/03 10:11:11;;;;;;;;;;;;;;;-0.53;100.00;102280.20;1773209;79;21172;-88
2020/12/03 10:14:04;;;;;;;41.00;19.10;;;;;;;-0.53;100.00;102281.05;1770799;79;20150;-89
2020/12/03 10:16:36;;;;;;;34.33;18.98;;;;;;;-0.50;100.00;102276.34;1770803;79;21057;-89
2020/12/03 10:19:07;;;;;;;43.63;19.90;;;;;;;-0.46;100.00;102278.05;1770731;79;21127;-88
2020/12/03 10:21:44;;;;;;;34.92;17.30;;;;;;;-0.36;100.00;102274.59;1770580;79;21324;-88
2020/12/03 10:24:22;;;;;;;41.50;20.37;;;;;;;-0.28;100.00;102269.46;1767240;81;21117;-88
2020/12/03 10:27:21;;;;;;;36.33;19.77;;;;;;;-0.23;100.00;102256.65;1770641;80;21120;-89
2020/12/03 10:30:07;;;;;;;39.03;20.27;;;;;;;-0.23;100.00;102260.05;1770818;79;21164;-90
2020/12/03 10:32:47;;;;;;;38.15;20.25;;;;;;;-0.19;100.00;102257.91;1773444;78;21132;-89
2020/12/03 10:35:17;;;;;;;37.57;19.00;;;;;;;-0.15;100.00;102266.44;1796234;79;21187;-87
2020/12/03 10:37:55;;;;;;;34.65;18.77;;;;;;;-0.14;100.00;102267.27;1796915;79;22019;-88
2020/12/03 10:40:26;;;;;;;33.35;19.15;;;;;;;-0.13;100.00;102260.02;1796755;78;21226;-88
2020/12/03 10:43:19;;;;;;;32.33;17.57;;;;;;;-0.09;100.00;102261.28;1794867;79;21167;-89
2020/12/03 10:45:50;;;;;;;38.88;19.87;;;;;;;-0.02;100.00;102252.71;1768885;79;21520;-90
2020/12/03 10:48:26;;;;;;;33.38;17.32;;;;;;;0.04;100.00;102251.84;1767983;79;22242;-90
2020/12/03 10:50:58;;;;;;;35.28;18.95;;;;;;;0.05;100.00;102247.55;1763765;81;21156;-88
2020/12/03 10:53:29;;;;;;;37.30;19.02;;;;;;;0.06;100.00;102244.13;1767887;78;21152;-88
2020/12/03 10:56:05;;;;;;;37.73;20.97;;;;;;;0.08;100.00;102250.11;1802640;78;21186;-88
2020/12/03 10:58:56;;;;;;;34.33;18.07;;;;;;;0.09;100.00;102246.69;1802662;78;21519;-89
2020/12/03 11:01:29;;;;;;;36.68;19.10;;;;;;;0.13;100.00;102245.39;1787939;79;22264;-88
2020/12/03 11:04:04;;;;;;;34.08;18.60;;;;;;;0.11;100.00;102244.54;1786061;79;21080;-89
2020/12/03 11:06:34;;;;;;;38.67;18.25;;;;;;;0.08;100.00;102234.30;1812493;78;21532;-88
2020/12/03 11:09:04;;;;;;;36.90;19.27;;;;;;;0.03;100.00;102234.76;1751511;81;21127;-87
2020/12/03 11:11:36;;;;;;;38.33;19.50;;;;;;;-0.06;100.00;102233.11;1832622;77;21187;-88
2020/12/03 11:14:13;;;;;;;35.55;19.07;;;;;;;-0.11;100.00;102225.86;1815914;77;22336;-89
2020/12/03 11:16:50;;;;;;;34.35;18.70;;;;;;;-0.11;100.00;102220.73;1772941;79;21147;-87
2020/12/03 11:19:24;;;;;;;38.28;20.70;;;;;;;-0.13;100.00;102224.16;1757086;81;21104;-89
2020/12/03 11:22:40;;;;;;;35.70;18.87;;;;;;;-0.12;100.00;102224.15;1770883;79;21167;-89
2020/12/03 11:25:13;;;;;;;35.30;19.25;;;;;;;-0.13;100.00;102216.07;1738329;78;21174;-89
2020/12/03 11:27:43;;;;;;;41.33;20.70;;;;;;;-0.09;100.00;102220.75;1802801;79;22255;-88
2020/12/03 11:30:19;;;;;;;45.35;21.27;;;;;;;-0.05;100.00;102220.73;1802623;78;21067;-89
2020/12/03 11:32:52;;;;;;;38.35;20.77;;;;;;;-0.07;100.00;102210.05;1769655;78;21128;-89
2020/12/03 11:35:28;;;;;;;31.15;17.87;;;;;;;-0.06;100.00;102216.87;1817971;78;21117;-89
2020/12/03 11:38:00;;;;;;;35.33;17.55;;;;;;;-0.07;100.00;102217.73;1802745;79;21135;-89
2020/12/03 11:43:20;;;;;;;38.25;18.20;;;;;;;-0.05;100.00;102220.73;1796069;79;21184;-89
2020/12/03 11:48:37;;;;;;;45.90;20.32;;;;;;;-0.02;100.00;102218.13;1871953;75;22839;-88
2020/12/03 11:51:04;;;;;;;38.15;19.07;;;;;;;-0.07;100.00;102221.16;1832498;76;21058;-88
2020/12/03 11:53:32;;;;;;;41.68;19.02;;;;;;;-0.08;100.00;102227.58;1821719;78;21610;-88
2020/12/03 11:56:01;;;;;;;41.95;20.40;;;;;;;-0.08;100.00;102231.42;1852145;76;21154;-88
2020/12/03 11:58:30;;;;;;;42.50;19.77;;;;;;;-0.10;100.00;102223.72;1863618;77;21133;-89
2020/12/03 12:01:12;;;;;;;36.38;19.12;;;;;;;-0.10;100.00;102223.72;1807501;78;21580;-89
2020/12/03 12:03:49;;;;;;;42.58;19.87;;;;;;;-0.03;100.00;102225.83;1868459;75;22159;-88
2020/12/03 12:09:25;;;;;;;32.83;16.37;;;;;;;-0.02;100.00;102227.09;1889206;76;22385;-88
2020/12/03 12:11:47;;;;;;;40.08;17.37;;;;;;;-0.04;100.00;102226.24;1858128;77;21129;-89
2020/12/03 12:14:15;;;;;;;36.17;17.95;;;;;;;-0.03;100.00;102220.27;1859996;77;21352;-90
2020/12/03 12:16:43;;;;;;;35.55;17.60;;;;;;;-0.01;100.00;102222.84;1860095;76;21128;-91
2020/12/03 12:19:11;;;;;;;30.65;17.62;;;;;;;0.01;100.00;102220.27;1855242;76;21426;-88
2020/12/03 12:21:39;;;;;;;36.20;17.65;;;;;;;-0.01;100.00;102221.13;1844884;77;21172;-89